createdAt,value
2023-04-22T00:02:14.524Z,13.14
2023-04-22T00:04:43.725Z,13.16
2023-04-22T00:07:13.164Z,13.23
2023-04-22T00:09:43.389Z,13.15
2023-04-22T00:12:12.576Z,13.12
2023-04-22T00:14:41.396Z,13.05
2023-04-22T00:17:10.141Z,13.09
2023-04-22T00:19:39.289Z,13.31
2023-04-22T00:22:08.205Z,13.20
2023-04-22T00:24:36.859Z,13.22
2023-04-22T00:27:08.095Z,13.16
2023-04-22T00:29:36.885Z,13.40
2023-04-22T00:32:06.127Z,13.31
2023-04-22T00:34:34.868Z,13.07
2023-04-22T00:37:03.639Z,13.24
2023-04-22T00:39:32.713Z,13.27
2023-04-22T00:42:01.982Z,13.10
2023-04-22T00:44:32.268Z,13.18
2023-04-22T00:47:01.409Z,13.01
2023-04-22T00:49:30.192Z,12.90
2023-04-22T00:51:58.855Z,13.07
2023-04-22T00:54:28.832Z,13.06
2023-04-22T00:56:58.958Z,12.88
2023-04-22T00:59:28.080Z,13.11
2023-04-22T01:01:58.150Z,13.01
2023-04-22T01:04:26.945Z,13.06
2023-04-22T01:06:56.243Z,13.15
2023-04-22T01:09:25.168Z,13.08
2023-04-22T01:11:53.860Z,13.15
2023-04-22T01:14:25.716Z,13.38
2023-04-22T01:16:55.143Z,13.20
2023-04-22T01:19:25.943Z,13.17
2023-04-22T01:21:55.867Z,12.65
2023-04-22T01:24:26.578Z,12.91
2023-04-22T01:26:55.717Z,13.03
2023-04-22T01:29:24.885Z,12.89
2023-04-22T01:31:53.898Z,12.71
2023-04-22T01:34:23.298Z,12.70
2023-04-22T01:36:52.465Z,12.71
2023-04-22T01:39:21.253Z,12.84
2023-04-22T01:41:51.812Z,12.85
2023-04-22T01:44:20.991Z,12.68
2023-04-22T01:46:49.664Z,12.65
2023-04-22T01:49:18.396Z,12.72
2023-04-22T01:51:47.333Z,12.52
2023-04-22T01:54:16.674Z,12.72
2023-04-22T01:56:52.170Z,12.47
2023-04-22T01:59:21.208Z,12.54
2023-04-22T02:01:51.279Z,12.77
2023-04-22T02:04:20.744Z,12.62
2023-04-22T02:06:49.712Z,12.52
2023-04-22T02:09:18.478Z,12.46
2023-04-22T02:11:47.465Z,12.50
2023-04-22T02:14:17.533Z,12.53
2023-04-22T02:16:46.854Z,12.57
2023-04-22T02:19:15.697Z,12.68
2023-04-22T02:21:44.385Z,12.58
2023-04-22T02:24:13.070Z,12.57
2023-04-22T02:26:43.233Z,12.57
2023-04-22T02:29:12.112Z,12.65
2023-04-22T02:31:42.235Z,12.59
2023-04-22T02:34:12.016Z,12.50
2023-04-22T02:36:40.712Z,12.67
2023-04-22T02:39:09.573Z,12.75
2023-04-22T02:41:38.848Z,12.59
2023-04-22T02:44:07.604Z,12.38
2023-04-22T02:46:40.179Z,12.51
2023-04-22T02:49:10.593Z,12.59
2023-04-22T02:51:39.894Z,12.60
2023-04-22T02:54:08.986Z,12.57
2023-04-22T02:56:37.866Z,12.63
2023-04-22T02:59:06.480Z,12.65
2023-04-22T03:01:35.526Z,12.70
2023-04-22T03:04:05.685Z,12.70
2023-04-22T03:06:36.084Z,12.67
2023-04-22T03:09:05.857Z,12.78
2023-04-22T03:11:53.287Z,12.84
2023-04-22T03:14:22.473Z,12.73
2023-04-22T03:16:51.599Z,12.69
2023-04-22T03:19:20.443Z,12.70
2023-04-22T03:21:51.086Z,12.78
2023-04-22T03:24:20.044Z,12.67
2023-04-22T03:26:49.352Z,12.68
2023-04-22T03:29:18.034Z,12.63
2023-04-22T03:31:46.840Z,12.85
2023-04-22T03:34:15.876Z,12.81
2023-04-22T03:36:45.426Z,12.66
2023-04-22T03:39:18.816Z,12.69
2023-04-22T03:41:48.036Z,12.71
2023-04-22T03:44:17.175Z,12.67
2023-04-22T03:46:46.128Z,12.57
2023-04-22T03:49:15.814Z,12.43
2023-04-22T03:51:44.889Z,12.43
2023-04-22T03:54:15.185Z,12.43
2023-04-22T03:56:46.313Z,12.11
2023-04-22T03:59:15.025Z,12.48
2023-04-22T04:01:43.785Z,12.30
2023-04-22T04:04:13.089Z,12.31
2023-04-22T04:06:42.259Z,12.30
2023-04-22T04:09:11.353Z,12.32
2023-04-22T04:11:41.665Z,12.34
2023-04-22T04:14:10.869Z,12.30
2023-04-22T04:16:40.099Z,12.32
2023-04-22T04:19:09.417Z,12.32
2023-04-22T04:21:39.558Z,12.30
2023-04-22T04:24:08.730Z,12.35
2023-04-22T04:26:37.941Z,12.35
2023-04-22T04:29:10.098Z,12.45
2023-04-22T04:31:39.301Z,12.37
2023-04-22T04:34:08.724Z,12.41
2023-04-22T04:36:39.981Z,12.43
2023-04-22T04:39:09.706Z,12.59
2023-04-22T04:41:38.729Z,12.70
2023-04-22T04:44:09.218Z,12.70
2023-04-22T04:46:38.902Z,12.75
2023-04-22T04:49:12.607Z,12.75
2023-04-22T04:51:41.958Z,12.85
2023-04-22T04:54:10.720Z,13.10
2023-04-22T04:56:40.147Z,13.08
2023-04-22T04:59:11.409Z,13.09
2023-04-22T05:01:40.881Z,13.00
2023-04-22T05:04:10.285Z,13.20
2023-04-22T05:06:39.775Z,13.39
2023-04-22T05:09:08.940Z,13.51
2023-04-22T05:11:38.165Z,13.54
2023-04-22T05:14:09.533Z,13.97
2023-04-22T05:16:40.172Z,14.54
2023-04-22T05:19:09.279Z,14.34
2023-04-22T05:21:38.369Z,15.03
2023-04-22T05:24:07.499Z,15.81
2023-04-22T05:26:36.279Z,16.07
2023-04-22T05:29:06.992Z,16.58
2023-04-22T05:31:35.831Z,16.77
2023-04-22T05:34:06.033Z,17.13
2023-04-22T05:36:35.153Z,17.40
2023-04-22T05:39:04.140Z,17.56
2023-04-22T05:41:33.703Z,17.59
2023-04-22T05:44:03.787Z,17.55
2023-04-22T05:46:32.636Z,17.65
2023-04-22T05:49:01.427Z,17.69
2023-04-22T05:51:32.938Z,17.57
2023-04-22T05:54:01.657Z,17.60
2023-04-22T05:56:30.737Z,17.48
2023-04-22T05:59:01.161Z,17.24
2023-04-22T06:01:30.102Z,17.01
2023-04-22T06:03:59.261Z,16.87
2023-04-22T06:06:28.476Z,16.49
2023-04-22T06:08:58.540Z,16.64
2023-04-22T06:11:28.194Z,16.86
2023-04-22T06:13:57.052Z,16.89
2023-04-22T06:16:26.345Z,16.72
2023-04-22T06:18:55.416Z,16.61
2023-04-22T06:21:24.299Z,16.63
2023-04-22T06:23:52.983Z,16.66
2023-04-22T06:26:24.461Z,16.83
2023-04-22T06:28:53.182Z,16.60
2023-04-22T06:31:22.213Z,16.97
2023-04-22T06:33:50.947Z,16.81
2023-04-22T06:36:20.136Z,16.61
2023-04-22T06:38:50.047Z,16.48
2023-04-22T06:41:20.179Z,16.58
2023-04-22T06:43:50.853Z,16.44
2023-04-22T06:46:27.151Z,16.15
2023-04-22T06:49:03.299Z,16.58
2023-04-22T06:51:32.939Z,16.38
2023-04-22T06:54:03.441Z,16.59
2023-04-22T06:56:32.201Z,16.80
2023-04-22T06:59:02.305Z,17.06
2023-04-22T07:01:31.602Z,16.98
2023-04-22T07:04:00.437Z,16.84
2023-04-22T07:06:29.202Z,16.75
2023-04-22T07:08:58.557Z,16.81
2023-04-22T07:11:27.808Z,17.36
2023-04-22T07:13:56.752Z,17.06
2023-04-22T07:16:27.995Z,17.38
2023-04-22T07:18:57.419Z,17.38
2023-04-22T07:21:26.898Z,17.40
2023-04-22T07:23:55.661Z,17.46
2023-04-22T07:26:24.382Z,17.92
2023-04-22T07:28:53.326Z,17.86
2023-04-22T07:31:22.065Z,17.99
2023-04-22T07:33:53.378Z,17.88
2023-04-22T07:36:22.465Z,18.25
2023-04-22T07:38:51.574Z,18.30
2023-04-22T07:41:20.415Z,18.46
2023-04-22T07:43:49.717Z,18.51
2023-04-22T07:46:18.447Z,18.75
2023-04-22T07:48:47.122Z,18.97
2023-04-22T07:51:17.993Z,18.97
2023-04-22T07:53:46.800Z,18.90
2023-04-22T07:56:15.608Z,19.03
2023-04-22T07:58:44.578Z,19.21
2023-04-22T08:01:13.279Z,19.45
2023-04-22T08:03:42.573Z,19.34
2023-04-22T08:06:11.425Z,19.48
2023-04-22T08:08:41.439Z,19.56
2023-04-22T08:11:10.404Z,19.35
2023-04-22T08:13:39.048Z,19.64
2023-04-22T08:16:08.413Z,19.52
2023-04-22T08:18:41.276Z,19.95
2023-04-22T08:21:10.033Z,19.85
2023-04-22T08:23:39.122Z,19.70
2023-04-22T08:26:11.870Z,19.56
2023-04-22T08:28:40.961Z,19.52
2023-04-22T08:31:11.933Z,19.48
2023-04-22T08:33:41.552Z,19.13
2023-04-22T08:36:11.197Z,19.52
2023-04-22T08:38:39.946Z,19.70
2023-04-22T08:41:11.054Z,19.89
2023-04-22T08:43:39.760Z,19.76
2023-04-22T08:46:08.595Z,19.88
2023-04-22T08:48:38.078Z,19.98
2023-04-22T08:51:06.993Z,19.80
2023-04-22T08:53:35.671Z,19.71
2023-04-22T08:56:04.920Z,20.13
2023-04-22T08:58:35.607Z,19.61
2023-04-22T09:01:04.880Z,19.75
2023-04-22T09:03:33.799Z,20.06
2023-04-22T09:06:07.129Z,20.17
2023-04-22T09:08:36.730Z,20.38
2023-04-22T09:11:05.914Z,20.71
2023-04-22T09:13:35.919Z,20.51
2023-04-22T09:16:05.007Z,20.35
2023-04-22T09:18:41.168Z,20.10
2023-04-22T09:21:11.011Z,20.29
2023-04-22T09:23:49.692Z,20.59
2023-04-22T09:26:20.914Z,20.56
2023-04-22T09:28:52.391Z,20.56
2023-04-22T09:31:22.511Z,20.68
2023-04-22T09:33:53.001Z,21.10
2023-04-22T09:36:24.093Z,20.97
2023-04-22T09:38:54.222Z,21.08
2023-04-22T09:41:30.292Z,21.17
2023-04-22T09:44:01.538Z,21.40
2023-04-22T09:46:31.919Z,21.12
2023-04-22T09:49:01.043Z,21.57
2023-04-22T09:51:32.450Z,21.11
2023-04-22T09:54:01.867Z,21.18
2023-04-22T09:56:48.615Z,21.61
2023-04-22T09:59:23.059Z,21.67
2023-04-22T10:01:53.647Z,21.59
2023-04-22T10:04:23.525Z,21.77
2023-04-22T10:06:52.532Z,21.99
2023-04-22T10:09:23.033Z,21.72
2023-04-22T10:11:58.113Z,21.52
2023-04-22T10:14:28.503Z,22.01
2023-04-22T10:17:00.611Z,22.03
2023-04-22T10:19:29.434Z,22.00
2023-04-22T10:22:00.897Z,22.18
2023-04-22T10:24:30.639Z,22.01
2023-04-22T10:27:01.633Z,22.31
2023-04-22T10:29:38.593Z,22.60
2023-04-22T10:32:25.389Z,22.87
2023-04-22T10:35:10.088Z,22.69
2023-04-22T10:37:42.652Z,22.78
2023-04-22T10:40:15.938Z,22.80
2023-04-22T10:42:50.304Z,22.74
2023-04-22T10:45:20.961Z,23.02
2023-04-22T10:47:49.791Z,22.67
2023-04-22T10:50:22.039Z,22.66
2023-04-22T10:52:53.012Z,22.93
2023-04-22T10:55:22.385Z,23.48
2023-04-22T10:57:52.749Z,23.27
2023-04-22T11:00:35.319Z,23.21
2023-04-22T11:03:14.405Z,22.71
2023-04-22T11:05:43.699Z,22.99
2023-04-22T11:08:30.726Z,22.63
2023-04-22T11:11:09.698Z,22.65
2023-04-22T11:13:38.885Z,22.68
2023-04-22T11:16:09.440Z,22.95
2023-04-22T11:18:38.962Z,22.82
2023-04-22T11:21:08.898Z,22.82
2023-04-22T11:23:37.958Z,22.59
2023-04-22T11:26:07.704Z,22.55
2023-04-22T11:28:36.516Z,22.11
2023-04-22T11:31:09.942Z,21.88
2023-04-22T11:33:43.812Z,21.65
2023-04-22T11:36:13.377Z,21.52
2023-04-22T11:38:42.090Z,21.53
2023-04-22T11:41:10.708Z,21.62
2023-04-22T11:43:47.720Z,21.74
2023-04-22T11:46:18.127Z,21.68
2023-04-22T11:48:48.293Z,21.76
2023-04-22T11:51:17.016Z,21.96
2023-04-22T11:53:51.804Z,22.06
2023-04-22T11:56:22.461Z,22.05
2023-04-22T11:58:51.220Z,22.27
2023-04-22T12:01:21.590Z,22.06
2023-04-22T12:03:51.320Z,21.98
2023-04-22T12:06:20.071Z,22.31
2023-04-22T12:08:51.312Z,22.49
2023-04-22T12:11:22.715Z,22.76
2023-04-22T12:13:51.761Z,22.49
2023-04-22T12:16:22.429Z,22.72
2023-04-22T12:18:52.459Z,22.73
2023-04-22T12:21:23.721Z,22.86
2023-04-22T12:23:52.594Z,22.63
2023-04-22T12:26:26.527Z,22.74
2023-04-22T12:28:59.149Z,22.64
2023-04-22T12:31:29.610Z,22.33
2023-04-22T12:33:58.441Z,22.62
2023-04-22T12:36:27.304Z,22.57
2023-04-22T12:38:56.523Z,22.67
2023-04-22T12:41:25.334Z,22.73
2023-04-22T12:43:55.277Z,22.74
2023-04-22T12:46:24.354Z,22.67
2023-04-22T12:48:54.488Z,22.33
2023-04-22T12:51:23.462Z,22.91
2023-04-22T12:53:52.440Z,23.35
2023-04-22T12:56:21.113Z,23.96
2023-04-22T12:58:49.835Z,24.48
2023-04-22T13:01:18.801Z,24.64
2023-04-22T13:03:47.707Z,24.84
2023-04-22T13:06:17.878Z,25.24
2023-04-22T13:08:46.868Z,25.70
2023-04-22T13:11:15.646Z,25.72
2023-04-22T13:13:44.265Z,25.99
2023-04-22T13:16:16.349Z,25.62
2023-04-22T13:18:45.225Z,25.95
2023-04-22T13:21:15.294Z,25.97
2023-04-22T13:23:45.231Z,25.78
2023-04-22T13:26:14.310Z,25.87
2023-04-22T13:28:43.067Z,25.80
2023-04-22T13:31:11.814Z,25.60
2023-04-22T13:33:40.887Z,25.67
2023-04-22T13:36:09.663Z,25.27
2023-04-22T13:38:38.354Z,25.33
2023-04-22T13:41:08.809Z,26.09
2023-04-22T13:43:37.958Z,26.27
2023-04-22T13:46:07.148Z,26.43
2023-04-22T13:48:35.812Z,26.01
2023-04-22T13:51:04.627Z,26.02
2023-04-22T13:53:34.620Z,25.67
2023-04-22T13:56:03.347Z,26.15
2023-04-22T13:58:37.098Z,26.36
2023-04-22T14:01:06.528Z,26.66
2023-04-22T14:03:35.958Z,26.88
2023-04-22T14:06:05.087Z,27.11
2023-04-22T14:08:33.761Z,27.00
2023-04-22T14:11:03.482Z,27.04
2023-04-22T14:13:33.613Z,26.74
2023-04-22T14:16:03.841Z,26.05
2023-04-22T14:18:36.246Z,25.69
2023-04-22T14:21:06.397Z,25.57
2023-04-22T14:23:35.130Z,25.62
2023-04-22T14:26:03.962Z,25.52
2023-04-22T14:28:34.428Z,25.65
2023-04-22T14:31:04.796Z,25.50
2023-04-22T14:33:34.220Z,25.46
2023-04-22T14:36:03.010Z,25.26
2023-04-22T14:38:31.796Z,24.89
2023-04-22T14:41:00.919Z,25.00
2023-04-22T14:43:30.501Z,24.82
2023-04-22T14:46:03.841Z,24.72
2023-04-22T14:48:35.326Z,25.25
2023-04-22T14:51:04.581Z,25.56
2023-04-22T14:53:33.372Z,25.62
2023-04-22T14:56:02.007Z,25.43
2023-04-22T14:58:31.873Z,25.49
2023-04-22T15:01:02.165Z,25.52
2023-04-22T15:03:32.157Z,25.26
2023-04-22T15:06:01.057Z,26.08
2023-04-22T15:08:29.764Z,26.58
2023-04-22T15:10:59.836Z,26.76
2023-04-22T15:13:28.857Z,26.92
2023-04-22T15:15:59.183Z,27.28
2023-04-22T15:18:29.642Z,27.73
2023-04-22T15:20:58.310Z,27.89
2023-04-22T15:23:27.079Z,27.95
2023-04-22T15:25:56.136Z,27.69
2023-04-22T15:28:25.108Z,26.99
2023-04-22T15:30:53.794Z,26.50
2023-04-22T15:33:22.750Z,26.19
2023-04-22T15:35:52.822Z,26.46
2023-04-22T15:38:21.467Z,26.15
2023-04-22T15:40:50.491Z,26.05
2023-04-22T15:43:19.193Z,25.56
2023-04-22T15:45:47.920Z,25.69
2023-04-22T15:48:16.950Z,25.99
2023-04-22T15:50:45.731Z,26.40
2023-04-22T15:53:15.814Z,26.62
2023-04-22T15:55:46.817Z,26.50
2023-04-22T15:58:16.242Z,26.64
2023-04-22T16:00:45.339Z,26.64
2023-04-22T16:03:14.443Z,26.70
2023-04-22T16:05:43.409Z,26.81
2023-04-22T16:08:13.463Z,26.87
2023-04-22T16:10:43.988Z,26.71
2023-04-22T16:13:12.730Z,26.52
2023-04-22T16:15:41.768Z,26.06
2023-04-22T16:18:10.960Z,26.23
2023-04-22T16:20:39.796Z,25.65
2023-04-22T16:23:08.846Z,25.54
2023-04-22T16:25:38.278Z,25.34
2023-04-22T16:28:08.845Z,24.99
2023-04-22T16:30:37.710Z,24.82
2023-04-22T16:33:06.920Z,24.79
2023-04-22T16:35:35.893Z,24.94
2023-04-22T16:38:04.892Z,24.76
2023-04-22T16:40:33.641Z,24.60
2023-04-22T16:43:05.187Z,24.55
2023-04-22T16:45:35.547Z,24.57
2023-04-22T16:48:04.422Z,24.32
2023-04-22T16:50:33.163Z,24.17
2023-04-22T16:53:02.206Z,24.05
2023-04-22T16:55:30.851Z,24.00
2023-04-22T16:58:02.624Z,23.77
2023-04-22T17:00:31.672Z,23.92
2023-04-22T17:03:04.358Z,23.74
2023-04-22T17:05:33.621Z,23.48
2023-04-22T17:08:02.305Z,23.31
2023-04-22T17:10:31.439Z,23.39
2023-04-22T17:13:00.784Z,23.11
2023-04-22T17:15:29.506Z,23.04
2023-04-22T17:17:58.194Z,22.91
2023-04-22T17:20:28.550Z,22.88
2023-04-22T17:22:58.320Z,22.52
2023-04-22T17:25:27.310Z,22.42
2023-04-22T17:27:56.014Z,22.31
2023-04-22T17:30:24.888Z,22.23
2023-04-22T17:32:53.960Z,22.12
2023-04-22T17:35:22.938Z,22.03
2023-04-22T17:37:53.746Z,21.93
2023-04-22T17:40:22.964Z,21.70
2023-04-22T17:42:51.695Z,21.52
2023-04-22T17:45:20.451Z,21.44
2023-04-22T17:47:52.209Z,21.29
2023-04-22T17:50:21.143Z,21.15
2023-04-22T17:52:50.065Z,20.93
2023-04-22T17:55:20.358Z,20.77
2023-04-22T17:57:49.022Z,20.70
2023-04-22T18:00:19.044Z,20.70
2023-04-22T18:02:48.143Z,20.54
2023-04-22T18:05:17.054Z,20.21
2023-04-22T18:07:46.069Z,20.25
2023-04-22T18:10:15.090Z,20.04
2023-04-22T18:12:45.106Z,19.91
2023-04-22T18:15:13.824Z,19.74
2023-04-22T18:17:43.017Z,19.54
2023-04-22T18:20:18.668Z,19.30
2023-04-22T18:22:49.097Z,19.27
2023-04-22T18:25:17.983Z,19.17
2023-04-22T18:27:50.120Z,19.01
2023-04-22T18:30:19.180Z,18.95
2023-04-22T18:32:48.184Z,18.67
2023-04-22T18:35:20.077Z,18.58
2023-04-22T18:37:49.409Z,18.62
2023-04-22T18:40:18.422Z,18.53
2023-04-22T18:42:48.865Z,18.49
2023-04-22T18:45:17.910Z,18.44
2023-04-22T18:47:48.717Z,18.42
2023-04-22T18:50:18.435Z,18.20
2023-04-22T18:52:47.534Z,18.32
2023-04-22T18:55:16.215Z,18.22
2023-04-22T18:57:45.282Z,18.16
2023-04-22T19:00:16.613Z,18.12
2023-04-22T19:02:46.136Z,18.09
2023-04-22T19:05:15.614Z,17.83
2023-04-22T19:07:45.294Z,17.84
2023-04-22T19:10:15.213Z,17.98
2023-04-22T19:12:44.239Z,17.66
2023-04-22T19:15:14.517Z,17.76
2023-04-22T19:17:44.562Z,17.76
2023-04-22T19:20:14.466Z,17.54
2023-04-22T19:22:47.580Z,17.64
2023-04-22T19:25:19.148Z,17.51
2023-04-22T19:27:47.987Z,17.41
2023-04-22T19:30:17.533Z,17.23
2023-04-22T19:32:47.977Z,17.06
2023-04-22T19:35:17.988Z,17.18
2023-04-22T19:37:47.379Z,16.94
2023-04-22T19:40:18.704Z,16.85
2023-04-22T19:42:50.276Z,16.91
2023-04-22T19:45:19.278Z,16.73
2023-04-22T19:47:50.898Z,16.62
2023-04-22T19:50:21.681Z,16.55
2023-04-22T19:52:57.987Z,16.46
2023-04-22T19:55:28.489Z,16.38
2023-04-22T19:58:02.748Z,16.11
2023-04-22T20:00:32.195Z,16.41
2023-04-22T20:03:04.666Z,15.96
2023-04-22T20:05:34.117Z,16.20
2023-04-22T20:08:03.683Z,15.94
2023-04-22T20:10:33.016Z,15.84
2023-04-22T20:13:04.286Z,15.79
2023-04-22T20:15:34.044Z,15.65
2023-04-22T20:18:06.701Z,15.73
2023-04-22T20:20:36.409Z,15.67
2023-04-22T20:23:10.291Z,15.74
2023-04-22T20:25:40.676Z,15.67
2023-04-22T20:28:10.806Z,15.86
2023-04-22T20:30:40.843Z,15.81
2023-04-22T20:33:15.165Z,15.58
2023-04-22T20:35:46.472Z,15.74
2023-04-22T20:38:15.466Z,15.58
2023-04-22T20:40:45.487Z,15.48
2023-04-22T20:43:14.851Z,15.44
2023-04-22T20:45:44.134Z,15.36
2023-04-22T20:48:14.728Z,15.34
2023-04-22T20:50:44.655Z,15.26
2023-04-22T20:53:14.643Z,15.29
2023-04-22T20:55:44.199Z,15.34
2023-04-22T20:58:14.772Z,15.13
2023-04-22T21:00:44.291Z,15.01
2023-04-22T21:03:16.816Z,14.88
2023-04-22T21:05:47.231Z,14.91
2023-04-22T21:08:23.126Z,14.69
2023-04-22T21:10:56.616Z,14.75
2023-04-22T21:13:28.905Z,14.62
2023-04-22T21:16:05.108Z,14.40
2023-04-22T21:18:42.839Z,14.51
2023-04-22T21:21:13.228Z,14.39
2023-04-22T21:23:43.204Z,14.24
2023-04-22T21:26:12.806Z,14.30
2023-04-22T21:28:42.141Z,14.28
2023-04-22T21:31:11.712Z,14.43
2023-04-22T21:33:42.094Z,14.38
2023-04-22T21:36:11.400Z,14.47
2023-04-22T21:38:40.573Z,14.03
2023-04-22T21:41:09.426Z,14.16
2023-04-22T21:43:38.116Z,14.22
2023-04-22T21:46:07.468Z,14.16
2023-04-22T21:48:36.544Z,14.44
2023-04-22T21:51:06.754Z,14.44
2023-04-22T21:53:36.101Z,13.97
2023-04-22T21:56:05.249Z,13.95
2023-04-22T21:58:33.936Z,13.94
2023-04-22T22:01:03.140Z,13.94
2023-04-22T22:03:32.345Z,13.74
2023-04-22T22:06:01.294Z,13.73
2023-04-22T22:08:31.635Z,13.80
2023-04-22T22:11:05.282Z,13.92
2023-04-22T22:13:34.433Z,13.91
2023-04-22T22:16:04.248Z,13.78
2023-04-22T22:18:33.422Z,13.97
2023-04-22T22:21:02.680Z,13.78
2023-04-22T22:23:32.986Z,14.00
2023-04-22T22:26:01.846Z,13.75
2023-04-22T22:28:30.948Z,13.58
2023-04-22T22:31:05.005Z,13.60
2023-04-22T22:33:34.225Z,13.58
2023-04-22T22:36:02.970Z,13.49
2023-04-22T22:38:32.997Z,13.36
2023-04-22T22:41:02.357Z,13.31
2023-04-22T22:43:31.468Z,13.31
2023-04-22T22:46:00.264Z,12.96
2023-04-22T22:48:29.291Z,12.87
2023-04-22T22:50:58.381Z,12.86
2023-04-22T22:53:27.476Z,13.00
2023-04-22T22:55:57.844Z,13.06
2023-04-22T22:58:26.934Z,12.99
2023-04-22T23:00:56.224Z,13.16
2023-04-22T23:03:25.319Z,12.95
2023-04-22T23:05:54.095Z,13.06
2023-04-22T23:08:23.087Z,13.19
2023-04-22T23:10:51.833Z,13.05
2023-04-22T23:13:22.033Z,12.86
2023-04-22T23:15:51.086Z,13.11
2023-04-22T23:18:20.303Z,13.09
2023-04-22T23:20:49.137Z,13.21
2023-04-22T23:23:19.481Z,12.83
2023-04-22T23:25:48.704Z,13.03
2023-04-22T23:28:17.914Z,13.10
2023-04-22T23:30:49.512Z,13.04
2023-04-22T23:33:18.003Z,13.03
2023-04-22T23:35:48.125Z,12.98
2023-04-22T23:38:16.784Z,12.93
2023-04-22T23:40:45.654Z,12.78
2023-04-22T23:43:14.682Z,12.69
2023-04-22T23:45:43.542Z,12.85
2023-04-22T23:48:13.702Z,12.66
2023-04-22T23:50:42.682Z,12.72
2023-04-22T23:53:11.349Z,12.64
2023-04-22T23:55:40.724Z,12.51
2023-04-22T23:58:09.951Z,12.62
